Time;durP1;ratioP1;P1;durP2;ratioP2;P2;SDS_P1;SDS_P2;PMS_P1;PMS_P2;Temp;Humidity;BMP_temperature;BMP_pressure;BME280_temperature;BME280_humidity;BME280_pressure;Samples;Min_cycle;Max_cycle;Signal;HPM_P1;HPM_P2
2021/05/28 00:00:44;;;;;;;2.00;1.05;;;;;;;15.20;63.79;99756.31;6347011;28;20122;-58
2021/05/28 00:03:46;;;;;;;1.52;1.10;;;;;;;15.18;62.95;99766.94;6346937;28;20040;-58
2021/05/28 00:06:47;;;;;;;3.58;1.15;;;;;;;15.14;63.93;99759.44;6345899;28;20047;-58
2021/05/28 00:09:47;;;;;;;4.40;1.17;;;;;;;15.13;64.48;99760.38;6346584;28;20115;-58
2021/05/28 00:12:48;;;;;;;3.72;1.20;;;;;;;15.08;64.57;99768.66;6345350;28;20570;-58
2021/05/28 00:15:49;;;;;;;3.53;1.30;;;;;;;14.98;65.21;99760.72;6346574;28;20059;-58
2021/05/28 00:18:51;;;;;;;2.85;1.35;;;;;;;14.95;66.20;99762.75;6328498;28;20127;-58
2021/05/28 00:21:52;;;;;;;2.38;1.27;;;;;;;14.93;65.98;99764.69;6345221;28;20036;-58
2021/05/28 00:24:53;;;;;;;3.25;1.30;;;;;;;14.86;66.28;99772.25;6346449;28;20042;-58
2021/05/28 00:27:54;;;;;;;2.45;1.40;;;;;;;14.84;66.35;99764.50;6345467;28;20116;-59
2021/05/28 00:30:55;;;;;;;2.83;1.30;;;;;;;14.85;66.32;99767.97;6344986;28;20063;-58
2021/05/28 00:33:56;;;;;;;1.67;1.30;;;;;;;14.86;65.87;99770.44;6345153;28;20035;-59
2021/05/28 00:36:57;;;;;;;2.92;1.63;;;;;;;14.86;65.94;99767.84;6346260;28;20043;-58
2021/05/28 00:39:58;;;;;;;2.55;1.30;;;;;;;14.88;66.30;99765.09;6345124;28;20040;-58
2021/05/28 00:42:59;;;;;;;2.28;1.30;;;;;;;14.91;66.60;99762.22;6345992;28;20051;-58
2021/05/28 00:46:00;;;;;;;9.13;1.17;;;;;;;14.87;66.27;99759.00;6346189;28;20118;-58
2021/05/28 00:49:00;;;;;;;2.33;1.27;;;;;;;14.83;66.26;99754.97;6346030;28;20048;-58
2021/05/28 00:52:02;;;;;;;2.83;1.10;;;;;;;14.83;67.01;99756.78;6346382;28;20035;-58
2021/05/28 00:55:04;;;;;;;1.55;1.25;;;;;;;14.78;67.72;99753.69;6345990;28;20044;-58
2021/05/28 00:58:06;;;;;;;3.70;1.15;;;;;;;14.79;67.51;99750.09;6344863;28;20398;-58
2021/05/28 01:01:08;;;;;;;3.38;1.30;;;;;;;14.73;68.15;99751.44;6346048;28;20085;-58
2021/05/28 01:04:09;;;;;;;2.80;1.55;;;;;;;14.69;68.55;99753.47;6344715;28;20441;-58
2021/05/28 01:07:10;;;;;;;6.90;1.30;;;;;;;14.72;68.43;99755.00;6345997;28;20065;-58
2021/05/28 01:10:12;;;;;;;6.68;1.85;;;;;;;14.69;68.12;99752.66;6344652;28;20039;-58
2021/05/28 01:13:14;;;;;;;;;;;;;;;14.65;68.56;99748.63;6345082;28;20512;-58
2021/05/28 01:16:16;;;;;;;1.33;1.13;;;;;;;14.63;68.39;99761.03;6344641;28;20015;-58
2021/05/28 01:19:17;;;;;;;1.50;1.02;;;;;;;14.54;69.13;99751.25;6345814;28;20054;-59
2021/05/28 01:22:19;;;;;;;1.30;1.02;;;;;;;14.52;69.81;99751.41;6344532;28;20354;-58
2021/05/28 01:25:21;;;;;;;2.85;1.23;;;;;;;14.49;69.87;99752.47;6327732;28;20043;-59
2021/05/28 01:28:22;;;;;;;3.27;1.33;;;;;;;14.52;69.65;99746.97;6345618;28;20082;-58
2021/05/28 01:31:23;;;;;;;1.52;1.00;;;;;;;14.50;69.64;99745.44;6344265;28;20048;-59
2021/05/28 01:34:24;;;;;;;2.95;1.10;;;;;;;14.46;69.84;99750.09;6327159;28;20059;-59
2021/05/28 01:37:25;;;;;;;1.40;1.02;;;;;;;14.46;69.22;99752.72;6319098;28;20478;-59
2021/05/28 01:40:26;;;;;;;1.50;1.00;;;;;;;14.48;68.93;99750.00;6323923;28;20493;-58
2021/05/28 01:43:27;;;;;;;4.55;1.15;;;;;;;14.50;68.62;99750.69;6323468;28;20456;-58
2021/05/28 01:46:29;;;;;;;1.38;1.15;;;;;;;14.48;68.44;99748.19;6324829;28;20067;-58
2021/05/28 01:49:30;;;;;;;1.42;1.00;;;;;;;14.44;69.25;99753.81;6324589;28;20040;-58
2021/05/28 01:52:31;;;;;;;2.38;1.35;;;;;;;14.47;69.18;99753.56;6323641;28;20747;-58
2021/05/28 01:55:32;;;;;;;2.80;1.05;;;;;;;14.46;69.49;99760.59;6323265;28;20052;-58
2021/05/28 01:58:32;;;;;;;2.45;1.50;;;;;;;14.46;69.33;99757.16;6306533;28;20048;-58
2021/05/28 02:01:33;;;;;;;2.95;1.40;;;;;;;14.41;69.93;99754.06;6324440;28;20123;-58
2021/05/28 02:04:34;;;;;;;3.85;1.38;;;;;;;14.43;70.20;99763.50;6324264;28;20109;-58
2021/05/28 02:07:37;;;;;;;3.03;1.48;;;;;;;14.39;70.72;99758.59;6306278;28;20052;-59
2021/05/28 02:10:38;;;;;;;2.17;1.20;;;;;;;14.34;70.80;99756.34;6322998;28;20067;-58
2021/05/28 02:13:39;;;;;;;1.27;1.10;;;;;;;14.27;71.11;99763.91;6322994;28;20048;-58
2021/05/28 02:16:41;;;;;;;1.77;1.35;;;;;;;14.24;72.06;99763.31;6322983;28;20118;-58
2021/05/28 02:19:42;;;;;;;1.52;1.27;;;;;;;14.23;71.93;99767.72;6324224;28;20078;-58
2021/05/28 02:22:44;;;;;;;6.33;1.20;;;;;;;14.24;72.00;99765.94;6323951;28;20051;-58
2021/05/28 02:25:44;;;;;;;1.75;1.55;;;;;;;14.22;72.10;99768.66;6322635;28;20273;-58
2021/05/28 02:28:45;;;;;;;1.52;1.40;;;;;;;14.15;72.73;99774.56;6323707;28;20452;-58
2021/05/28 02:31:46;;;;;;;2.50;1.00;;;;;;;14.15;72.37;99775.38;6325006;28;20395;-58
2021/05/28 02:34:47;;;;;;;2.28;0.90;;;;;;;14.11;72.82;99773.97;6347934;28;20067;-58
2021/05/28 02:37:48;;;;;;;4.13;1.40;;;;;;;14.10;72.46;99764.41;6348975;28;20039;-58
2021/05/28 02:40:49;;;;;;;2.17;1.20;;;;;;;14.07;73.16;99775.16;6349195;28;20052;-58
2021/05/28 02:43:50;;;;;;;2.75;1.13;;;;;;;14.06;72.89;99770.84;6348647;28;20050;-58
2021/05/28 02:46:50;;;;;;;2.65;1.30;;;;;;;13.98;73.46;99770.63;6324460;28;20158;-59
2021/05/28 02:49:51;;;;;;;1.83;1.20;;;;;;;13.97;73.79;99767.19;6322645;28;20048;-58
2021/05/28 02:52:52;;;;;;;3.78;1.20;;;;;;;13.90;74.27;99764.22;6321976;28;20079;-59
2021/05/28 02:55:53;;;;;;;1.90;1.40;;;;;;;13.85;74.26;99771.63;6321688;28;20055;-58
2021/05/28 02:58:53;;;;;;;3.97;1.98;;;;;;;13.87;74.56;99774.13;6323047;28;20044;-58
2021/05/28 03:01:55;;;;;;;3.38;1.17;;;;;;;13.91;74.38;99775.53;6335819;28;20046;-59
2021/05/28 03:04:55;;;;;;;2.45;1.50;;;;;;;13.96;74.05;99773.41;6346892;28;20039;-58
2021/05/28 03:07:56;;;;;;;2.03;1.10;;;;;;;14.00;74.26;99774.81;6348164;28;20341;-58
2021/05/28 03:10:57;;;;;;;2.00;1.23;;;;;;;14.03;74.37;99773.75;6346926;28;20489;-58
2021/05/28 03:13:59;;;;;;;3.58;1.40;;;;;;;13.94;74.24;99777.94;6346701;28;20047;-58
2021/05/28 03:16:59;;;;;;;2.47;1.30;;;;;;;13.97;73.58;99777.69;6347873;28;20050;-58
2021/05/28 03:20:03;;;;;;;2.80;1.10;;;;;;;13.97;74.03;99775.06;6347925;28;20040;-58
2021/05/28 03:23:06;;;;;;;3.45;1.17;;;;;;;13.98;74.29;99787.22;6321419;28;20056;-59
2021/05/28 03:26:07;;;;;;;2.83;1.33;;;;;;;14.00;73.90;99793.19;6322396;28;20036;-56
2021/05/28 03:29:08;;;;;;;1.33;1.20;;;;;;;13.97;73.72;99788.16;6322485;28;20040;-55
2021/05/28 03:32:09;;;;;;;1.92;1.25;;;;;;;13.98;73.33;99783.75;6322104;28;20245;-56
2021/05/28 03:35:10;;;;;;;4.82;1.23;;;;;;;14.00;73.43;99784.47;6321034;28;20058;-56
2021/05/28 03:38:11;;;;;;;1.83;1.10;;;;;;;13.99;72.80;99782.81;6322163;28;20409;-56
2021/05/28 03:41:12;;;;;;;1.67;1.30;;;;;;;14.00;72.60;99795.81;6322173;28;20044;-55
2021/05/28 03:44:13;;;;;;;2.40;1.30;;;;;;;13.99;71.62;99804.63;6321812;28;20458;-57
2021/05/28 03:47:15;;;;;;;3.60;1.47;;;;;;;13.99;72.05;99803.78;6321898;28;20127;-56
2021/05/28 03:50:16;;;;;;;3.35;1.30;;;;;;;14.01;71.79;99807.97;6344403;28;20754;-56
2021/05/28 03:53:19;;;;;;;;;;;;;;;14.10;71.81;99806.38;6346399;28;20043;-56
2021/05/28 03:56:19;;;;;;;6.55;1.60;;;;;;;14.14;70.31;99791.25;6346911;28;19924;-57
2021/05/28 03:59:20;;;;;;;6.07;0.98;;;;;;;14.17;69.54;99802.34;6345813;28;20507;-56
2021/05/28 04:02:21;;;;;;;1.98;1.17;;;;;;;14.29;68.41;99790.84;6346911;28;20054;-57
2021/05/28 04:05:22;;;;;;;6.95;1.10;;;;;;;14.40;66.91;99789.97;6345592;28;20055;-57
2021/05/28 04:08:26;;;;;;;2.78;1.33;;;;;;;14.43;65.74;99795.00;6312774;28;20046;-57
2021/05/28 04:11:27;;;;;;;7.40;1.33;;;;;;;14.54;63.64;99796.75;6345533;28;20040;-55
2021/05/28 04:14:28;;;;;;;3.90;1.52;;;;;;;14.61;62.67;99795.28;6346716;28;20054;-59
2021/05/28 04:17:29;;;;;;;4.80;1.48;;;;;;;14.67;61.76;99792.16;6346363;28;20066;-58
2021/05/28 04:20:30;;;;;;;1.95;1.40;;;;;;;14.74;61.52;99792.47;6344621;28;20036;-59
2021/05/28 04:23:31;;;;;;;8.35;1.42;;;;;;;14.79;61.22;99803.47;6321109;28;20511;-58
2021/05/28 04:26:32;;;;;;;5.25;1.30;;;;;;;14.83;60.30;99807.50;6320013;28;20438;-59
2021/05/28 04:29:33;;;;;;;5.28;1.50;;;;;;;14.90;59.61;99807.81;6319969;28;20044;-58
2021/05/28 04:32:34;;;;;;;6.30;1.60;;;;;;;14.95;59.62;99813.53;6321061;28;20430;-59
2021/05/28 04:35:41;;;;;;;9.00;1.67;;;;;;;15.00;59.06;99821.03;6319824;28;20397;-59
2021/05/28 04:38:42;;;;;;;5.13;1.58;;;;;;;15.03;59.47;99826.00;6319667;28;20471;-59
2021/05/28 04:41:43;;;;;;;6.20;1.63;;;;;;;15.07;58.97;99816.91;6320112;28;20051;-58
2021/05/28 04:44:44;;;;;;;5.32;1.55;;;;;;;15.06;59.03;99818.72;6320857;28;20040;-59
2021/05/28 04:47:44;;;;;;;2.85;1.38;;;;;;;15.10;58.53;99821.94;6319642;28;20040;-59
2021/05/28 04:50:45;;;;;;;8.10;1.50;;;;;;;15.14;58.57;99831.22;6319633;28;20127;-59
2021/05/28 04:53:46;;;;;;;9.13;1.75;;;;;;;15.21;58.09;99831.53;6319455;28;20525;-58
2021/05/28 04:56:47;;;;;;;6.35;1.80;;;;;;;15.25;58.49;99833.78;6319671;28;20052;-59
2021/05/28 04:59:48;;;;;;;11.30;2.47;;;;;;;15.28;58.61;99833.53;6319669;28;20075;-59
2021/05/28 05:02:52;;;;;;;4.88;1.67;;;;;;;15.31;57.92;99838.50;6319744;28;20138;-59
2021/05/28 05:05:56;;;;;;;3.85;1.60;;;;;;;15.35;57.60;99838.28;6320506;28;20048;-58
2021/05/28 05:08:56;;;;;;;6.43;2.03;;;;;;;15.37;57.84;99849.50;6320638;28;20040;-59
2021/05/28 05:11:58;;;;;;;7.30;1.80;;;;;;;15.42;58.50;99844.66;6320542;28;20040;-58
2021/05/28 05:14:59;;;;;;;6.68;1.90;;;;;;;15.46;58.46;99849.56;6323548;28;20044;-59
2021/05/28 05:18:00;;;;;;;3.43;1.73;;;;;;;15.53;58.16;99852.47;6325485;28;20043;-59
2021/05/28 05:21:01;;;;;;;5.80;1.90;;;;;;;15.56;58.80;99849.59;6325621;28;20055;-59
2021/05/28 05:24:02;;;;;;;5.13;2.38;;;;;;;15.56;57.64;99856.66;6325266;28;20039;-57
2021/05/28 05:27:06;;;;;;;5.80;1.90;;;;;;;15.53;58.03;99868.25;6324023;28;20044;-57
2021/05/28 05:30:08;;;;;;;6.72;2.08;;;;;;;15.57;58.72;99866.22;6323904;28;20099;-56
2021/05/28 05:33:11;;;;;;;4.35;2.42;;;;;;;15.56;58.21;99870.63;6307363;28;20082;-57
2021/05/28 05:36:11;;;;;;;5.28;2.00;;;;;;;15.55;58.60;99876.03;6323684;28;20243;-57
2021/05/28 05:39:12;;;;;;;4.38;1.75;;;;;;;15.55;58.50;99874.22;6306899;28;20074;-57
2021/05/28 05:42:15;;;;;;;4.25;1.80;;;;;;;15.56;58.34;99865.34;6325203;28;20139;-55
2021/05/28 05:45:16;;;;;;;6.55;2.17;;;;;;;15.57;58.57;99874.94;6328719;28;20040;-57
2021/05/28 05:48:18;;;;;;;6.93;1.83;;;;;;;15.65;58.21;99880.38;6315839;28;20126;-57
2021/05/28 05:51:19;;;;;;;5.35;1.83;;;;;;;15.72;58.11;99883.34;6327872;28;20338;-57
2021/05/28 05:54:19;;;;;;;7.30;2.08;;;;;;;15.79;58.45;99887.09;6331709;28;20060;-57
2021/05/28 05:57:20;;;;;;;4.47;1.90;;;;;;;15.81;57.69;99893.06;6316337;28;20154;-58
2021/05/28 06:00:21;;;;;;;8.05;2.28;;;;;;;15.82;58.56;99896.53;6348013;28;20036;-58
2021/05/28 06:03:25;;;;;;;4.88;2.38;;;;;;;15.87;57.84;99887.28;6342914;28;20043;-56
2021/05/28 06:06:26;;;;;;;3.95;2.20;;;;;;;15.96;57.66;99900.59;6337663;27;20044;-57
2021/05/28 06:09:27;;;;;;;5.38;2.30;;;;;;;16.02;57.67;99886.91;6306298;28;20505;-58
2021/05/28 06:12:28;;;;;;;4.32;2.13;;;;;;;16.11;57.64;99894.03;6324256;28;20037;-57
2021/05/28 06:15:31;;;;;;;8.18;2.22;;;;;;;16.24;58.33;99893.78;6323172;28;20045;-57
2021/05/28 06:18:38;;;;;;;5.85;2.10;;;;;;;16.32;56.77;99886.06;6323986;28;20044;-57
2021/05/28 06:21:40;;;;;;;8.05;1.95;;;;;;;16.36;56.93;99891.91;6323836;28;20581;-57
2021/05/28 06:24:40;;;;;;;6.22;1.85;;;;;;;16.35;56.20;99890.22;6323607;28;20048;-58
2021/05/28 06:27:42;;;;;;;4.72;2.17;;;;;;;16.38;57.50;99885.53;6323603;28;20032;-56
2021/05/28 06:30:47;;;;;;;4.35;2.20;;;;;;;16.41;57.36;99887.91;6323729;28;20055;-56
2021/05/28 06:33:48;;;;;;;4.18;1.98;;;;;;;16.44;57.06;99890.25;6322615;28;20048;-56
2021/05/28 06:36:49;;;;;;;5.57;1.98;;;;;;;16.50;55.76;99889.69;6323298;28;20571;-57
2021/05/28 06:39:52;;;;;;;6.10;2.22;;;;;;;16.52;56.45;99893.03;6323344;28;20048;-57
2021/05/28 06:42:52;;;;;;;7.20;2.03;;;;;;;16.53;56.11;99891.22;6323336;28;20663;-57
2021/05/28 06:45:53;;;;;;;5.70;2.30;;;;;;;16.58;56.29;99886.41;6323248;28;20066;-57
2021/05/28 06:48:56;;;;;;;10.48;2.33;;;;;;;16.63;55.83;99885.97;6323018;28;20051;-57
2021/05/28 06:52:00;;;;;;;5.00;2.40;;;;;;;16.62;56.55;99879.88;6323373;28;20143;-57
2021/05/28 06:55:01;;;;;;;7.97;2.20;;;;;;;16.67;56.56;99882.09;6304788;28;20055;-56
2021/05/28 06:58:02;;;;;;;5.88;1.92;;;;;;;16.75;56.31;99884.06;6322880;28;20051;-57
2021/05/28 07:01:05;;;;;;;3.15;2.10;;;;;;;16.85;56.14;99869.13;6321705;28;20040;-58
2021/05/28 07:04:06;;;;;;;10.48;2.25;;;;;;;16.86;54.90;99876.03;6322702;28;20044;-58
2021/05/28 07:07:07;;;;;;;5.15;2.00;;;;;;;16.94;55.00;99875.34;6321446;28;20475;-58
2021/05/28 07:10:09;;;;;;;4.50;1.55;;;;;;;17.00;55.07;99874.81;6322447;28;20042;-58
2021/05/28 07:13:10;;;;;;;6.90;1.77;;;;;;;17.05;54.58;99877.88;6322586;28;20123;-57
2021/05/28 07:16:11;;;;;;;7.28;1.95;;;;;;;17.15;55.17;99886.56;6321305;28;20501;-58
2021/05/28 07:19:11;;;;;;;14.15;2.13;;;;;;;17.22;54.32;99879.78;6304415;28;20052;-57
2021/05/28 07:22:12;;;;;;;5.32;1.98;;;;;;;17.37;54.85;99879.34;6336378;28;20122;-57
2021/05/28 07:25:15;;;;;;;8.70;1.75;;;;;;;17.42;54.05;99882.38;6345221;28;20042;-58
2021/05/28 07:28:18;;;;;;;3.42;2.17;;;;;;;17.43;53.13;99886.69;6347297;28;20047;-57
2021/05/28 07:31:23;;;;;;;3.05;1.92;;;;;;;17.50;53.57;99872.81;6346373;28;20067;-57
2021/05/28 07:34:27;;;;;;;9.02;2.13;;;;;;;17.67;53.54;99880.94;6347364;28;20046;-57
2021/05/28 07:37:30;;;;;;;5.50;1.92;;;;;;;17.80;52.70;99880.63;6346607;28;20043;-57
2021/05/28 07:40:30;;;;;;;15.98;2.15;;;;;;;17.90;52.29;99876.19;6346102;28;20040;-57
2021/05/28 07:43:32;;;;;;;3.53;1.65;;;;;;;18.04;52.02;99869.59;6345900;28;20130;-57
2021/05/28 07:46:40;;;;;;;10.27;2.35;;;;;;;18.19;53.11;99883.97;6329345;28;20116;-56
2021/05/28 07:49:41;;;;;;;9.20;2.00;;;;;;;18.21;51.50;99881.19;6345637;28;20035;-57
2021/05/28 07:52:42;;;;;;;2.80;1.60;;;;;;;18.23;51.36;99882.69;6328940;28;20118;-56
2021/05/28 07:55:43;;;;;;;13.50;2.22;;;;;;;18.28;52.34;99877.81;6346568;28;20630;-57
2021/05/28 07:58:44;;;;;;;13.32;2.00;;;;;;;18.31;52.51;99879.31;6346758;28;20050;-57
2021/05/28 08:01:45;;;;;;;10.75;2.00;;;;;;;18.34;51.26;99886.94;6345549;28;20059;-57
2021/05/28 08:04:46;;;;;;;4.18;1.67;;;;;;;18.44;51.14;99882.41;6345395;28;20031;-57
2021/05/28 08:07:48;;;;;;;4.95;2.35;;;;;;;18.55;51.72;99883.19;6346452;28;20127;-56
2021/05/28 08:10:49;;;;;;;5.47;1.83;;;;;;;18.61;51.04;99879.94;6346541;28;20059;-56
2021/05/28 08:13:50;;;;;;;7.85;1.80;;;;;;;18.66;51.05;99881.16;6328540;28;20126;-56
2021/05/28 08:16:51;;;;;;;9.85;2.00;;;;;;;18.71;51.33;99880.72;6345235;28;20507;-57
2021/05/28 08:19:51;;;;;;;11.75;1.90;;;;;;;18.78;51.65;99873.00;6345107;28;20120;-56
2021/05/28 08:22:54;;;;;;;5.10;1.90;;;;;;;18.89;51.87;99878.94;6346254;28;20043;-57
2021/05/28 08:25:55;;;;;;;8.80;1.70;;;;;;;19.05;51.45;99877.44;6346297;28;20721;-57
2021/05/28 08:28:56;;;;;;;4.95;1.90;;;;;;;19.17;50.15;99881.50;6346298;28;20039;-57
2021/05/28 08:31:57;;;;;;;13.53;2.10;;;;;;;19.29;49.51;99884.72;6344806;28;20055;-57
2021/05/28 08:34:58;;;;;;;13.85;1.75;;;;;;;19.36;49.78;99884.94;6346098;28;20723;-58
2021/05/28 08:38:02;;;;;;;7.75;1.70;;;;;;;19.41;48.72;99886.13;6345942;28;20044;-58
2021/05/28 08:41:08;;;;;;;7.23;1.80;;;;;;;19.47;48.26;99884.69;6346107;28;20031;-58
2021/05/28 08:44:10;;;;;;;3.42;1.63;;;;;;;19.45;47.50;99889.28;6344803;28;20036;-58
2021/05/28 08:47:16;;;;;;;3.83;1.60;;;;;;;19.52;48.14;99890.34;6345930;28;20039;-58
2021/05/28 08:50:17;;;;;;;4.35;1.52;;;;;;;19.62;47.41;99903.47;6349671;28;20031;-58
2021/05/28 09:05:31;;;;;;;5.53;1.75;;;;;;;19.83;46.43;99908.41;6350364;28;20043;-57
2021/05/28 09:08:35;;;;;;;5.72;1.73;;;;;;;19.90;47.54;99923.50;6350800;28;20047;-58
2021/05/28 09:12:00;;;;;;;7.50;1.80;;;;;;;19.93;45.95;99923.22;6350813;28;20394;-58
2021/05/28 09:15:01;;;;;;;9.95;1.88;;;;;;;20.05;47.66;99918.44;6349560;28;20104;-58
2021/05/28 09:18:07;;;;;;;8.23;1.58;;;;;;;20.12;47.08;99918.69;6350455;28;20099;-57
2021/05/28 09:21:10;;;;;;;12.13;2.17;;;;;;;20.26;48.26;99917.22;6349452;28;20040;-57
2021/05/28 09:24:35;;;;;;;12.63;2.00;;;;;;;20.41;46.92;99925.41;6350467;28;20095;-57
2021/05/28 09:27:38;;;;;;;2.58;1.50;;;;;;;20.37;46.45;99916.13;6350373;28;20051;-58
2021/05/28 09:30:39;;;;;;;9.10;2.00;;;;;;;20.48;46.63;99927.25;6349209;28;20075;-57
2021/05/28 09:33:46;;;;;;;6.90;1.98;;;;;;;20.64;46.83;99934.44;6348544;28;20047;-57
2021/05/28 09:36:47;;;;;;;5.95;1.65;;;;;;;20.67;45.43;99925.34;6350268;28;20040;-57
2021/05/28 09:39:48;;;;;;;8.60;2.10;;;;;;;20.65;46.24;99927.31;6332120;28;20047;-57
2021/05/28 09:42:51;;;;;;;10.40;2.00;;;;;;;20.71;44.58;99931.97;6345488;28;20044;-57
2021/05/28 09:45:52;;;;;;;9.25;1.95;;;;;;;20.73;44.43;99938.78;6340485;28;20048;-58
2021/05/28 09:49:05;;;;;;;3.70;1.88;;;;;;;20.90;44.71;99923.75;6338794;28;20493;-58
2021/05/28 09:52:22;;;;;;;7.32;1.90;;;;;;;20.92;43.21;99937.66;6345388;28;20043;-57
2021/05/28 09:55:25;;;;;;;4.00;1.73;;;;;;;20.98;44.58;99927.38;6349914;28;20039;-58
2021/05/28 09:59:01;;;;;;;8.75;1.83;;;;;;;21.03;43.91;99919.78;6349828;28;20166;-58
2021/05/28 10:02:02;;;;;;;4.10;1.45;;;;;;;21.13;43.62;99936.38;6349549;28;20495;-58
2021/05/28 10:05:05;;;;;;;5.15;1.60;;;;;;;21.20;43.53;99936.53;6331620;28;20054;-58
2021/05/28 10:08:09;;;;;;;7.03;1.80;;;;;;;21.23;43.11;99936.19;6349420;28;20474;-58
2021/05/28 10:11:10;;;;;;;11.05;1.92;;;;;;;21.28;44.19;99928.56;6349459;28;20521;-58
2021/05/28 10:14:12;;;;;;;5.90;1.80;;;;;;;21.34;43.48;99925.25;6349478;28;20040;-57
2021/05/28 10:17:14;;;;;;;6.53;1.55;;;;;;;21.39;42.11;99930.88;6349395;28;20059;-58
2021/05/28 10:20:15;;;;;;;5.47;1.48;;;;;;;21.37;41.45;99927.56;6349777;28;20065;-57
2021/05/28 10:23:17;;;;;;;10.02;1.40;;;;;;;21.33;40.92;99934.19;6331270;28;20039;-57
2021/05/28 10:26:25;;;;;;;3.38;1.50;;;;;;;21.40;41.15;99924.59;6347976;28;20090;-58
2021/05/28 10:29:28;;;;;;;2.20;1.33;;;;;;;21.50;41.19;99938.53;6349195;28;20051;-57
2021/05/28 10:32:29;;;;;;;4.88;1.65;;;;;;;21.48;40.12;99926.44;6348546;28;20173;-57
2021/05/28 10:35:40;;;;;;;6.97;1.60;;;;;;;21.48;40.99;99924.59;6341162;28;20040;-58
2021/05/28 10:38:51;;;;;;;2.72;1.40;;;;;;;21.48;41.06;99923.78;6323467;28;20521;-58
2021/05/28 10:42:07;;;;;;;13.23;1.50;;;;;;;21.61;41.18;99920.63;6323603;28;20123;-57
2021/05/28 10:45:09;;;;;;;4.25;1.30;;;;;;;21.74;39.95;99918.25;6323737;28;20036;-57
2021/05/28 10:48:10;;;;;;;4.40;1.45;;;;;;;21.77;39.51;99928.56;6331368;28;20118;-65
2021/05/28 10:51:17;;;;;;;7.20;1.70;;;;;;;21.84;40.08;99941.97;6322051;28;20058;-58
2021/05/28 10:54:18;;;;;;;9.57;1.90;;;;;;;21.92;41.19;99928.66;6338570;28;20040;-58
2021/05/28 10:57:55;;;;;;;6.07;1.47;;;;;;;21.92;38.98;99932.16;6323794;28;20059;-58
2021/05/28 11:00:56;;;;;;;3.67;1.48;;;;;;;21.96;38.76;99945.09;6321158;28;20055;-58
2021/05/28 11:04:02;;;;;;;2.73;1.20;;;;;;;22.08;39.61;99949.88;6321665;28;20144;-58
2021/05/28 11:07:03;;;;;;;4.95;1.58;;;;;;;22.20;39.25;99944.22;6322466;28;20055;-58
2021/05/28 11:10:23;;;;;;;7.57;1.40;;;;;;;22.27;39.33;99947.84;6322514;28;20101;-58
2021/05/28 11:13:24;;;;;;;12.57;1.65;;;;;;;22.41;39.17;99939.16;6320630;28;20040;-58
2021/05/28 11:16:26;;;;;;;102.83;5.27;;;;;;;22.44;38.94;99940.63;6322447;28;20123;-58
2021/05/28 11:19:40;;;;;;;3.03;1.35;;;;;;;22.47;38.04;99940.31;6321139;28;20409;-58
2021/05/28 11:22:42;;;;;;;4.45;1.65;;;;;;;22.64;38.61;99941.84;6322266;28;20119;-58
2021/05/28 11:25:51;;;;;;;12.65;1.80;;;;;;;22.82;38.49;99946.91;6304600;28;20064;-58
2021/05/28 11:28:55;;;;;;;13.00;1.60;;;;;;;22.85;37.40;99943.06;6322007;28;20474;-58
2021/05/28 11:32:00;;;;;;;6.45;1.60;;;;;;;22.96;37.40;99949.81;6322108;28;20032;-58
2021/05/28 11:35:10;;;;;;;3.13;1.40;;;;;;;23.18;38.88;99946.34;6322145;28;20066;-58
2021/05/28 11:38:12;;;;;;;4.75;1.60;;;;;;;23.31;35.54;99946.59;6321930;28;20067;-58
2021/05/28 11:41:13;;;;;;;8.10;1.98;;;;;;;23.53;36.45;99949.41;6321860;28;20040;-57
2021/05/28 11:44:18;;;;;;;2.95;1.38;;;;;;;23.69;35.20;99941.25;6320647;28;20051;-58
2021/05/28 11:47:19;;;;;;;5.20;1.63;;;;;;;23.76;35.68;99945.84;6321912;28;20036;-58
2021/05/28 11:50:21;;;;;;;7.13;1.35;;;;;;;23.77;35.36;99936.91;6321479;28;20100;-58
2021/05/28 11:53:22;;;;;;;;;;;;;;;23.79;35.47;99937.53;6304068;28;20044;-57
2021/05/28 11:56:24;;;;;;;3.00;1.30;;;;;;;24.43;33.70;99937.78;6321622;28;19920;-58
2021/05/28 11:59:51;;;;;;;13.18;1.77;;;;;;;26.08;32.20;99936.03;6321414;28;20123;-58
2021/05/28 12:02:56;;;;;;;7.95;1.42;;;;;;;28.41;27.93;99928.16;6320174;28;20044;-58
2021/05/28 12:06:05;;;;;;;4.82;1.45;;;;;;;29.85;25.74;99930.25;6320050;28;20060;-58
2021/05/28 12:09:06;;;;;;;4.57;1.23;;;;;;;30.83;24.55;99940.03;6319944;28;20070;-58
2021/05/28 12:12:06;;;;;;;4.05;1.35;;;;;;;28.80;26.06;99939.75;6321486;28;20055;-58
2021/05/28 12:15:08;;;;;;;;;;;;;;;29.64;25.80;99926.09;6320435;28;20052;-58
2021/05/28 12:18:27;;;;;;;6.57;1.45;;;;;;;30.96;23.46;99930.97;6321260;28;19919;-60
2021/05/28 12:21:28;;;;;;;17.55;1.67;;;;;;;31.43;22.83;99941.00;6320974;28;20093;-58
2021/05/28 12:24:29;;;;;;;;;;;;;;;32.28;22.14;99931.56;6321406;28;20047;-58
2021/05/28 12:27:30;;;;;;;3.17;0.98;;;;;;;32.08;21.28;99935.50;6336599;28;19920;-58
2021/05/28 12:30:31;;;;;;;;;;;;;;;31.99;22.37;99949.56;6321451;28;20147;-58
2021/05/28 12:33:35;;;;;;;6.13;1.23;;;;;;;31.50;21.99;99936.31;6336588;28;19927;-58
2021/05/28 12:36:41;;;;;;;10.05;1.63;;;;;;;30.08;23.82;99934.97;6320858;28;20036;-58
2021/05/28 12:39:42;;;;;;;4.13;1.17;;;;;;;28.81;25.66;99929.84;6319501;28;20040;-57
2021/05/28 12:42:54;;;;;;;2.95;1.10;;;;;;;27.69;27.37;99924.63;6319579;28;20123;-58
2021/05/28 12:45:56;;;;;;;2.83;1.30;;;;;;;27.33;28.82;99925.91;6320607;28;20055;-58
2021/05/28 12:49:05;;;;;;;4.05;1.30;;;;;;;27.12;29.34;99918.88;6320488;28;20054;-58
2021/05/28 12:52:14;;;;;;;4.65;1.30;;;;;;;26.76;29.17;99925.41;6329651;28;20046;-58
2021/05/28 12:55:15;;;;;;;5.15;1.55;;;;;;;26.19;29.67;99924.78;6345834;28;20535;-58
2021/05/28 12:58:24;;;;;;;;;;;;;;;26.24;29.56;99930.34;6328769;28;20048;-57
2021/05/28 13:01:31;;;;;;;6.63;1.45;;;;;;;26.31;29.59;99923.16;6321349;28;19927;-58
2021/05/28 13:04:48;;;;;;;7.70;1.23;;;;;;;26.11;30.36;99936.44;6320131;28;20059;-58
2021/05/28 13:07:49;;;;;;;5.13;1.25;;;;;;;26.07;31.05;99923.69;6303851;28;20467;-58
2021/05/28 13:10:56;;;;;;;3.43;1.20;;;;;;;25.88;30.44;99925.19;6321242;28;20043;-57
2021/05/28 13:13:56;;;;;;;2.70;1.15;;;;;;;25.95;31.09;99925.25;6321423;28;20150;-57
2021/05/28 13:17:17;;;;;;;6.73;1.60;;;;;;;25.65;30.00;99923.59;6303377;28;20056;-58
2021/05/28 13:20:18;;;;;;;7.40;1.60;;;;;;;25.25;31.16;99923.31;6321823;28;20052;-58
2021/05/28 13:23:25;;;;;;;9.20;1.50;;;;;;;25.17;32.15;99920.72;6346397;28;20043;-58
2021/05/28 13:26:29;;;;;;;7.25;1.50;;;;;;;25.24;31.52;99918.97;6362495;27;20062;-57
2021/05/28 13:29:45;;;;;;;4.03;1.02;;;;;;;25.30;32.13;99923.53;6346447;28;20478;-57
2021/05/28 13:32:46;;;;;;;6.05;1.40;;;;;;;25.24;32.25;99916.28;6346423;28;20047;-57
2021/05/28 13:35:49;;;;;;;10.52;1.85;;;;;;;25.29;32.53;99931.75;6347889;28;20036;-57
2021/05/28 13:38:57;;;;;;;10.68;1.20;;;;;;;25.32;31.92;99924.16;6349953;28;20402;-57
2021/05/28 13:41:58;;;;;;;8.52;1.50;;;;;;;25.11;32.05;99913.50;6349776;28;20070;-56
2021/05/28 13:45:00;;;;;;;2.97;1.53;;;;;;;25.07;32.35;99922.91;6351016;28;20534;-57
2021/05/28 13:48:01;;;;;;;2.60;1.10;;;;;;;25.12;31.70;99923.97;6349810;28;20047;-57
2021/05/28 13:51:02;;;;;;;6.28;1.42;;;;;;;25.02;32.17;99920.81;6349708;28;20032;-57
2021/05/28 13:54:05;;;;;;;7.90;1.52;;;;;;;24.98;32.62;99914.19;6330742;28;20565;-57
2021/05/28 13:57:07;;;;;;;3.80;1.40;;;;;;;24.68;32.56;99914.28;6347244;28;20035;-57
2021/05/28 14:00:09;;;;;;;5.95;1.30;;;;;;;24.30;33.55;99926.97;6325430;28;20048;-58
2021/05/28 14:03:11;;;;;;;2.53;0.95;;;;;;;24.15;34.27;99921.63;6336841;28;20044;-58
2021/05/28 14:06:12;;;;;;;2.47;1.25;;;;;;;24.44;33.59;99907.47;6341857;28;20425;-58
2021/05/28 14:09:13;;;;;;;6.35;1.30;;;;;;;24.32;33.30;99912.44;6306287;28;20063;-58
2021/05/28 14:12:14;;;;;;;3.08;1.40;;;;;;;24.30;33.19;99914.47;6323722;28;20044;-58
2021/05/28 14:15:17;;;;;;;3.47;1.40;;;;;;;24.36;34.66;99917.38;6325012;28;20078;-57
2021/05/28 14:18:18;;;;;;;1.58;1.33;;;;;;;24.21;33.64;99920.88;6325267;28;20500;-57
2021/05/28 14:21:19;;;;;;;2.70;1.27;;;;;;;24.01;34.31;99925.13;6323321;28;20066;-57
2021/05/28 14:24:20;;;;;;;11.05;1.58;;;;;;;24.02;35.11;99927.63;6322787;28;20040;-57
2021/05/28 14:27:21;;;;;;;9.27;1.50;;;;;;;23.74;34.41;99922.91;6322940;28;20051;-57
2021/05/28 14:30:22;;;;;;;2.30;1.47;;;;;;;23.29;35.10;99932.66;6324327;28;20139;-57
2021/05/28 14:33:34;;;;;;;6.15;1.88;;;;;;;23.38;35.12;99929.91;6324521;28;20521;-57